Time,TemperatureF,DewpointF,PressureIn,WindDirection,WindDirectionDegrees,WindSpeedMPH,WindSpeedGustMPH,Humidity,HourlyPrecipIn,Conditions,Clouds,dailyrainin,SolarRadiationWatts/m^2,SoftwareType,DateUTC
2013-07-27 00:00:00,63.0,53.0,-100.00,West,264,0.0,6.0,70,-99.99,,,0.03,0.000000,,2013-07-27 07:00:00,
2013-07-27 00:34:00,63.0,53.0,-100.00,West,264,0.0,6.0,70,-99.99,,,0.03,0.000000,,2013-07-27 07:34:00,
2013-07-27 00:44:00,63.0,53.0,-100.00,West,264,0.0,6.0,70,-99.99,,,0.03,0.000000,,2013-07-27 07:44:00,
2013-07-27 00:52:00,63.0,53.0,-100.00,West,264,0.0,6.0,70,-99.99,,,0.03,0.000000,,2013-07-27 07:52:00,
2013-07-27 01:00:00,66.0,58.0,-100.00,NNE,14,3.0,6.0,76,0.00,,,0.03,0.000000,,2013-07-27 08:00:00,
2013-07-27 01:32:00,66.0,58.0,-100.00,NNE,14,3.0,6.0,76,0.00,,,0.03,0.000000,,2013-07-27 08:32:00,
2013-07-27 01:43:00,66.0,58.0,-100.00,NNE,14,3.0,6.0,76,0.00,,,0.03,0.000000,,2013-07-27 08:43:00,
2013-07-27 01:53:00,66.0,58.0,-100.00,NNE,14,3.0,6.0,76,0.00,,,0.03,0.000000,,2013-07-27 08:53:00,
2013-07-27 02:00:00,64.0,57.0,-100.00,NNE,19,1.0,6.0,79,0.00,,,0.03,0.000000,,2013-07-27 09:00:00,
2013-07-27 02:33:00,64.0,57.0,-100.00,NNE,19,1.0,6.0,79,0.00,,,0.03,0.000000,,2013-07-27 09:33:00,
2013-07-27 02:44:00,64.0,57.0,-100.00,NNE,19,1.0,6.0,79,0.00,,,0.03,0.000000,,2013-07-27 09:44:00,
2013-07-27 02:52:00,64.0,57.0,-100.00,NNE,19,1.0,6.0,79,0.00,,,0.03,0.000000,,2013-07-27 09:52:00,
2013-07-27 03:00:00,65.0,58.0,-100.00,NE,54,2.0,5.0,77,-99.99,,,0.03,0.000000,,2013-07-27 10:00:00,
2013-07-27 03:32:00,65.0,58.0,-100.00,NE,54,2.0,5.0,77,-99.99,,,0.03,0.000000,,2013-07-27 10:32:00,
2013-07-27 03:43:00,65.0,58.0,-100.00,NE,54,2.0,5.0,77,-99.99,,,0.03,0.000000,,2013-07-27 10:43:00,
2013-07-27 03:52:00,65.0,58.0,-100.00,NE,54,2.0,5.0,77,-99.99,,,0.03,0.000000,,2013-07-27 10:52:00,
2013-07-27 04:00:00,64.0,58.0,-100.00,NNE,14,1.0,5.0,80,0.00,,,0.03,0.000000,,2013-07-27 11:00:00,
2013-07-27 04:32:00,64.0,58.0,-100.00,NNE,14,1.0,5.0,80,0.00,,,0.03,0.000000,,2013-07-27 11:32:00,
2013-07-27 04:44:00,64.0,58.0,-100.00,NNE,14,1.0,5.0,80,0.00,,,0.03,0.000000,,2013-07-27 11:44:00,
2013-07-27 04:52:00,64.0,58.0,-100.00,NNE,14,1.0,5.0,80,0.00,,,0.03,0.000000,,2013-07-27 11:52:00,
2013-07-27 05:00:00,64.0,58.0,-100.00,WSW,258,3.0,4.0,80,0.01,,,0.04,0.000000,,2013-07-27 12:00:00,
2013-07-27 05:33:00,64.0,58.0,-100.00,WSW,258,3.0,4.0,80,0.01,,,0.04,0.000000,,2013-07-27 12:33:00,
2013-07-27 05:43:00,64.0,58.0,-100.00,WSW,258,3.0,4.0,80,0.01,,,0.04,0.000000,,2013-07-27 12:43:00,
2013-07-27 05:52:00,64.0,58.0,-100.00,WSW,258,3.0,4.0,80,0.01,,,0.04,0.000000,,2013-07-27 12:52:00,
2013-07-27 06:00:00,62.0,55.0,-100.00,East,84,0.0,9.0,79,0.01,,,0.05,0.000000,,2013-07-27 13:00:00,
2013-07-27 06:32:00,62.0,55.0,-100.00,East,84,0.0,9.0,79,0.01,,,0.05,0.000000,,2013-07-27 13:32:00,
2013-07-27 06:44:00,62.0,55.0,-100.00,East,84,0.0,9.0,79,0.01,,,0.05,0.000000,,2013-07-27 13:44:00,
2013-07-27 06:53:00,62.0,55.0,-100.00,East,84,0.0,9.0,79,0.01,,,0.05,0.000000,,2013-07-27 13:53:00,
2013-07-27 07:00:00,64.0,55.0,-100.00,SW,230,2.0,6.0,72,0.00,,,0.05,0.000000,,2013-07-27 14:00:00,
2013-07-27 07:33:00,64.0,55.0,-100.00,SW,230,2.0,6.0,72,0.00,,,0.05,0.000000,,2013-07-27 14:33:00,
2013-07-27 07:44:00,64.0,55.0,-100.00,SW,230,2.0,6.0,72,0.00,,,0.05,0.000000,,2013-07-27 14:44:00,
2013-07-27 07:54:00,64.0,55.0,-100.00,SW,230,2.0,6.0,72,0.00,,,0.05,0.000000,,2013-07-27 14:54:00,
2013-07-27 08:00:00,66.0,56.0,-100.00,SSW,212,0.0,5.0,71,0.00,,,0.05,6.000000,,2013-07-27 15:00:00,
2013-07-27 08:33:00,66.0,56.0,-100.00,SSW,212,0.0,5.0,71,0.00,,,0.05,6.000000,,2013-07-27 15:33:00,
2013-07-27 08:44:00,66.0,56.0,-100.00,SSW,212,0.0,5.0,71,0.00,,,0.05,6.000000,,2013-07-27 15:44:00,
2013-07-27 08:53:00,66.0,56.0,-100.00,SSW,212,0.0,5.0,71,0.00,,,0.05,6.000000,,2013-07-27 15:53:00,
2013-07-27 09:00:00,66.0,53.0,-100.00,NNE,22,0.0,3.0,63,0.00,,,0.05,66.000000,,2013-07-27 16:00:00,
2013-07-27 09:33:00,66.0,53.0,-100.00,NNE,22,0.0,3.0,63,0.00,,,0.05,66.000000,,2013-07-27 16:33:00,
2013-07-27 09:43:00,66.0,53.0,-100.00,NNE,22,0.0,3.0,63,0.00,,,0.05,66.000000,,2013-07-27 16:43:00,
2013-07-27 09:54:00,66.0,53.0,-100.00,NNE,22,0.0,3.0,63,0.00,,,0.05,66.000000,,2013-07-27 16:54:00,
2013-07-27 10:00:00,71.0,50.0,-100.00,ENE,72,4.0,4.0,48,-99.99,,,0.05,186.000000,,2013-07-27 17:00:00,
2013-07-27 10:32:00,71.0,50.0,-100.00,ENE,72,4.0,4.0,48,-99.99,,,0.05,186.000000,,2013-07-27 17:32:00,
2013-07-27 10:43:00,71.0,50.0,-100.00,ENE,72,4.0,4.0,48,-99.99,,,0.05,186.000000,,2013-07-27 17:43:00,
2013-07-27 10:53:00,71.0,50.0,-100.00,ENE,72,4.0,4.0,48,-99.99,,,0.05,186.000000,,2013-07-27 17:53:00,
2013-07-27 11:00:00,76.0,51.0,-100.00,East,89,3.0,10.0,41,0.00,,,0.05,607.000000,,2013-07-27 18:00:00,
2013-07-27 11:33:00,76.0,51.0,-100.00,East,89,3.0,10.0,41,0.00,,,0.05,607.000000,,2013-07-27 18:33:00,
2013-07-27 11:43:00,76.0,51.0,-100.00,East,89,3.0,10.0,41,0.00,,,0.05,607.000000,,2013-07-27 18:43:00,
2013-07-27 11:53:00,76.0,51.0,-100.00,East,89,3.0,10.0,41,0.00,,,0.05,607.000000,,2013-07-27 18:53:00,
2013-07-27 12:00:00,78.0,56.0,-100.00,North,11,2.0,9.0,47,0.00,,,0.04,414.000000,,2013-07-27 19:00:00,
2013-07-27 12:32:00,78.0,56.0,-100.00,North,11,2.0,9.0,47,0.00,,,0.04,414.000000,,2013-07-27 19:32:00,
2013-07-27 12:43:00,78.0,56.0,-100.00,North,11,2.0,9.0,47,0.00,,,0.04,414.000000,,2013-07-27 19:43:00,
2013-07-27 12:53:00,78.0,56.0,-100.00,North,11,2.0,9.0,47,0.00,,,0.04,414.000000,,2013-07-27 19:53:00,
2013-07-27 13:00:00,75.0,48.0,-100.00,East,94,4.0,9.0,39,0.00,,,0.03,167.000000,,2013-07-27 20:00:00,
2013-07-27 13:32:00,75.0,48.0,-100.00,East,94,4.0,9.0,39,0.00,,,0.03,167.000000,,2013-07-27 20:32:00,
2013-07-27 13:43:00,75.0,48.0,-100.00,East,94,4.0,9.0,39,0.00,,,0.03,167.000000,,2013-07-27 20:43:00,
2013-07-27 13:52:00,75.0,48.0,-100.00,East,94,4.0,9.0,39,0.00,,,0.03,167.000000,,2013-07-27 20:52:00,
2013-07-27 16:00:00,77.0,58.0,-100.00,SSW,198,0.0,7.0,52,-99.99,,,0.15,709.000000,,2013-07-27 23:00:00,
2013-07-27 16:32:00,77.0,58.0,-100.00,SSW,198,0.0,7.0,52,-99.99,,,0.15,709.000000,,2013-07-27 23:32:00,
2013-07-27 16:44:00,77.0,58.0,-100.00,SSW,198,0.0,7.0,52,-99.99,,,0.15,709.000000,,2013-07-27 23:44:00,
2013-07-27 16:53:00,77.0,58.0,-100.00,SSW,198,0.0,7.0,52,-99.99,,,0.15,709.000000,,2013-07-27 23:53:00,
2013-07-27 17:00:00,79.0,58.0,-100.00,South,181,5.0,5.0,48,0.00,,,0.15,235.000000,,2013-07-28 00:00:00,
2013-07-27 17:32:00,79.0,58.0,-100.00,South,181,5.0,5.0,48,0.00,,,0.15,235.000000,,2013-07-28 00:32:00,
2013-07-27 17:44:00,79.0,58.0,-100.00,South,181,5.0,5.0,48,0.00,,,0.15,235.000000,,2013-07-28 00:44:00,
2013-07-27 17:53:00,79.0,58.0,-100.00,South,181,5.0,5.0,48,0.00,,,0.15,235.000000,,2013-07-28 00:53:00,
2013-07-27 18:00:00,77.0,50.0,-100.00,ENE,77,3.0,11.0,39,0.00,,,0.15,211.000000,,2013-07-28 01:00:00,
2013-07-27 18:23:00,77.0,50.0,-100.00,ENE,77,3.0,11.0,39,0.00,,,0.15,211.000000,,2013-07-28 01:23:00,
2013-07-27 18:32:00,77.0,50.0,-100.00,ENE,77,3.0,11.0,39,0.00,,,0.15,211.000000,,2013-07-28 01:32:00,
2013-07-27 18:43:00,77.0,50.0,-100.00,ENE,77,3.0,11.0,39,0.00,,,0.15,211.000000,,2013-07-28 01:43:00,
2013-07-27 18:53:00,77.0,50.0,-100.00,ENE,77,3.0,11.0,39,0.00,,,0.15,211.000000,,2013-07-28 01:53:00,
2013-07-27 19:00:00,84.0,55.0,-100.00,SE,134,4.0,13.0,37,0.00,,,0.15,356.000000,,2013-07-28 02:00:00,
2013-07-27 19:32:00,84.0,55.0,-100.00,SE,134,4.0,13.0,37,0.00,,,0.15,356.000000,,2013-07-28 02:32:00,
2013-07-27 19:42:00,84.0,55.0,-100.00,SE,134,4.0,13.0,37,0.00,,,0.15,356.000000,,2013-07-28 02:42:00,
2013-07-27 19:53:00,84.0,55.0,-100.00,SE,134,4.0,13.0,37,0.00,,,0.15,356.000000,,2013-07-28 02:53:00,
2013-07-27 20:00:00,77.0,54.0,-100.00,West,270,6.0,11.0,45,0.00,,,-99.99,139.000000,,2013-07-28 03:00:00,
2013-07-27 20:32:00,77.0,54.0,-100.00,West,270,6.0,11.0,45,0.00,,,-99.99,139.000000,,2013-07-28 03:32:00,
2013-07-27 20:42:00,77.0,54.0,-100.00,West,270,6.0,11.0,45,0.00,,,-99.99,139.000000,,2013-07-28 03:42:00,
2013-07-27 20:53:00,77.0,54.0,-100.00,West,270,6.0,11.0,45,0.00,,,-99.99,139.000000,,2013-07-28 03:53:00,
2013-07-27 21:00:00,74.0,52.0,-100.00,WNW,282,4.0,14.0,47,0.00,,,0.15,31.000000,,2013-07-28 04:00:00,
2013-07-27 21:32:00,74.0,52.0,-100.00,WNW,282,4.0,14.0,47,0.00,,,0.15,31.000000,,2013-07-28 04:32:00,
2013-07-27 21:43:00,74.0,52.0,-100.00,WNW,282,4.0,14.0,47,0.00,,,0.15,31.000000,,2013-07-28 04:43:00,
2013-07-27 21:53:00,74.0,52.0,-100.00,WNW,282,4.0,14.0,47,0.00,,,0.15,31.000000,,2013-07-28 04:53:00,
2013-07-27 22:00:00,70.0,48.0,-100.00,WNW,301,1.0,14.0,45,0.00,,,0.15,0.000000,,2013-07-28 05:00:00,
2013-07-27 22:32:00,70.0,48.0,-100.00,WNW,301,1.0,14.0,45,0.00,,,0.15,0.000000,,2013-07-28 05:32:00,
2013-07-27 22:43:00,70.0,48.0,-100.00,WNW,301,1.0,14.0,45,0.00,,,0.15,0.000000,,2013-07-28 05:43:00,
2013-07-27 22:53:00,70.0,48.0,-100.00,WNW,301,1.0,14.0,45,0.00,,,0.15,0.000000,,2013-07-28 05:53:00,
2013-07-27 23:00:00,71.0,51.0,-100.00,West,259,2.0,9.0,49,0.00,,,0.15,0.000000,,2013-07-28 06:00:00,
2013-07-27 23:32:00,71.0,51.0,-100.00,West,259,2.0,9.0,49,0.00,,,0.15,0.000000,,2013-07-28 06:32:00,
2013-07-27 23:43:00,71.0,51.0,-100.00,West,259,2.0,9.0,49,0.00,,,0.15,0.000000,,2013-07-28 06:43:00,
2013-07-27 23:52:00,71.0,51.0,-100.00,West,259,2.0,9.0,49,0.00,,,0.15,0.000000,,2013-07-28 06:52:00,